createdAt,value
2022-10-16T00:01:31.863Z,99130.28
2022-10-16T00:04:00.572Z,99120.97
2022-10-16T00:06:29.611Z,99129.03
2022-10-16T00:08:56.762Z,99126.34
2022-10-16T00:11:29.194Z,99132.75
2022-10-16T00:13:59.670Z,99129.84
2022-10-16T00:16:27.192Z,99127.16
2022-10-16T00:18:53.958Z,99121.63
2022-10-16T00:21:22.835Z,99123.47
2022-10-16T00:24:01.172Z,99121.22
2022-10-16T00:26:29.819Z,99127.84
2022-10-16T00:28:56.590Z,99124.53
2022-10-16T00:31:23.666Z,99129.06
2022-10-16T00:33:52.104Z,99141.88
2022-10-16T00:36:22.203Z,99138.38
2022-10-16T00:38:52.280Z,99145.78
2022-10-16T00:41:18.824Z,99137.16
2022-10-16T00:43:48.007Z,99138.78
2022-10-16T00:46:27.134Z,99132.81
2022-10-16T00:49:01.631Z,99132.19
2022-10-16T00:51:41.732Z,99126.44
2022-10-16T00:54:15.892Z,99120.44
2022-10-16T00:56:44.258Z,99125.81
2022-10-16T00:59:16.867Z,99120.81
2022-10-16T01:01:43.402Z,99125.78
2022-10-16T01:04:09.863Z,99113.78
2022-10-16T01:07:03.207Z,99116.06
2022-10-16T01:09:38.668Z,99123.53
2022-10-16T01:12:47.773Z,99125.38
2022-10-16T01:15:34.662Z,99128.69
2022-10-16T01:18:14.694Z,99132.81
2022-10-16T01:21:05.746Z,99135.50
2022-10-16T01:23:48.424Z,99135.69
2022-10-16T01:26:34.616Z,99140.06
2022-10-16T01:29:14.656Z,99138.59
2022-10-16T01:31:46.992Z,99142.09
2022-10-16T01:34:18.819Z,99148.28
2022-10-16T01:36:53.726Z,99136.72
2022-10-16T01:39:27.438Z,99137.78
2022-10-16T01:42:02.596Z,99122.91
2022-10-16T01:44:36.053Z,99125.59
2022-10-16T01:47:03.165Z,99118.38
2022-10-16T01:49:35.565Z,99126.84
2022-10-16T01:52:09.453Z,99123.31
2022-10-16T01:54:41.031Z,99107.66
2022-10-16T01:57:09.890Z,99108.06
2022-10-16T01:59:41.711Z,99109.06
2022-10-16T02:02:11.779Z,99107.66
2022-10-16T02:04:53.990Z,99103.91
2022-10-16T02:07:20.364Z,99102.28
2022-10-16T02:09:47.311Z,99103.09
2022-10-16T02:12:28.785Z,99098.56
2022-10-16T02:14:55.464Z,99087.00
2022-10-16T02:17:22.815Z,99099.59
2022-10-16T02:19:52.746Z,99099.78
2022-10-16T02:22:36.837Z,99107.22
2022-10-16T02:25:12.263Z,99108.25
2022-10-16T02:27:48.588Z,99116.69
2022-10-16T02:30:31.481Z,99115.88
2022-10-16T02:33:01.754Z,99116.09
2022-10-16T02:35:29.008Z,99119.59
2022-10-16T02:37:57.471Z,99115.06
2022-10-16T02:40:25.483Z,99116.94
2022-10-16T02:42:54.090Z,99101.44
2022-10-16T02:45:21.538Z,99089.69
2022-10-16T02:47:49.308Z,99095.88
2022-10-16T02:50:16.020Z,99082.47
2022-10-16T02:52:42.425Z,99091.97
2022-10-16T02:55:09.333Z,99088.88
2022-10-16T02:57:35.785Z,99091.13
2022-10-16T03:00:02.174Z,99099.59
2022-10-16T03:02:28.487Z,99103.72
2022-10-16T03:04:55.023Z,99106.59
2022-10-16T03:07:21.555Z,99113.81
2022-10-16T03:09:47.962Z,99115.69
2022-10-16T03:12:18.229Z,99109.91
2022-10-16T03:14:44.894Z,99117.56
2022-10-16T03:17:11.351Z,99113.00
2022-10-16T03:19:38.675Z,99111.97
2022-10-16T03:22:05.748Z,99118.38
2022-10-16T03:24:32.569Z,99104.53
2022-10-16T03:27:00.144Z,99105.56
2022-10-16T03:29:28.039Z,99098.78
2022-10-16T03:31:54.572Z,99104.97
2022-10-16T03:34:21.088Z,99105.97
2022-10-16T03:36:47.685Z,99104.34
2022-10-16T03:39:14.671Z,99104.34
2022-10-16T03:41:41.148Z,99105.97
2022-10-16T03:44:07.630Z,99100.19
2022-10-16T03:46:34.120Z,99101.03
2022-10-16T03:49:01.713Z,99115.47
2022-10-16T03:51:29.606Z,99120.44
2022-10-16T03:53:56.072Z,99117.75
2022-10-16T03:56:22.492Z,99116.28
2022-10-16T03:58:48.915Z,99117.13
2022-10-16T04:01:15.459Z,99120.84
2022-10-16T04:03:42.161Z,99118.16
2022-10-16T04:06:08.673Z,99123.75
2022-10-16T04:08:35.434Z,99125.97
2022-10-16T04:11:02.170Z,99124.34
2022-10-16T04:13:28.538Z,99126.63
2022-10-16T04:15:54.885Z,99131.78
2022-10-16T04:18:21.265Z,99129.50
2022-10-16T04:20:47.645Z,99128.06
2022-10-16T04:23:14.079Z,99123.31
2022-10-16T04:25:40.498Z,99127.03
2022-10-16T04:28:08.401Z,99133.81
2022-10-16T04:30:34.970Z,99136.50
2022-10-16T04:33:02.711Z,99138.78
2022-10-16T04:35:30.567Z,99142.06
2022-10-16T04:37:58.964Z,99138.78
2022-10-16T04:40:25.410Z,99132.56
2022-10-16T04:42:52.902Z,99138.97
2022-10-16T04:45:21.698Z,99129.47
2022-10-16T04:47:48.095Z,99131.34
2022-10-16T04:50:14.723Z,99127.84
2022-10-16T04:52:42.274Z,99128.66
2022-10-16T04:55:08.837Z,99131.56
2022-10-16T04:57:35.281Z,99134.03
2022-10-16T05:00:02.834Z,99144.97
2022-10-16T05:02:29.309Z,99144.31
2022-10-16T05:04:55.651Z,99147.00
2022-10-16T05:07:22.471Z,99148.88
2022-10-16T05:09:48.942Z,99152.38
2022-10-16T05:12:15.653Z,99156.69
2022-10-16T05:14:42.017Z,99151.75
2022-10-16T05:17:08.646Z,99150.72
2022-10-16T05:19:35.093Z,99146.19
2022-10-16T05:22:01.946Z,99161.22
2022-10-16T05:24:30.408Z,99168.66
2022-10-16T05:26:57.272Z,99165.16
2022-10-16T05:29:24.476Z,99165.53
2022-10-16T05:31:52.216Z,99155.03
2022-10-16T05:34:18.603Z,99156.69
2022-10-16T05:36:45.234Z,99155.03
2022-10-16T05:39:12.151Z,99158.72
2022-10-16T05:41:38.520Z,99156.50
2022-10-16T05:44:07.225Z,99161.63
2022-10-16T05:46:34.166Z,99164.06
2022-10-16T05:49:00.642Z,99168.63
2022-10-16T05:51:27.091Z,99166.56
2022-10-16T05:53:55.830Z,99170.25
2022-10-16T05:56:22.206Z,99176.06
2022-10-16T05:58:49.672Z,99184.28
2022-10-16T06:01:21.591Z,99172.34
2022-10-16T06:03:48.323Z,99176.06
2022-10-16T06:06:17.649Z,99187.22
2022-10-16T06:08:45.919Z,99179.75
2022-10-16T06:11:23.806Z,99179.75
2022-10-16T06:13:55.514Z,99185.97
2022-10-16T06:16:21.972Z,99188.66
2022-10-16T06:18:48.529Z,99193.81
2022-10-16T06:21:18.605Z,99203.75
2022-10-16T06:26:15.826Z,99204.56
2022-10-16T06:28:42.553Z,99212.66
2022-10-16T06:31:12.004Z,99210.19
2022-10-16T06:33:39.436Z,99221.75
2022-10-16T06:36:07.515Z,99222.59
2022-10-16T06:38:34.340Z,99220.31
2022-10-16T06:41:01.255Z,99235.59
2022-10-16T06:43:30.047Z,99230.44
2022-10-16T06:45:57.622Z,99249.69
2022-10-16T06:48:25.371Z,99250.09
2022-10-16T06:53:43.955Z,99273.03
2022-10-16T06:56:23.423Z,99301.72
2022-10-16T06:58:51.085Z,99312.69
2022-10-16T07:01:20.570Z,99335.22
2022-10-16T07:03:47.865Z,99357.09
2022-10-16T07:06:16.975Z,99373.66
2022-10-16T07:08:45.356Z,99374.47
2022-10-16T07:11:16.098Z,99389.56
2022-10-16T07:13:44.217Z,99325.69
2022-10-16T07:16:20.328Z,98862.88
2022-10-16T07:18:47.537Z,98854.00
2022-10-16T07:21:20.838Z,98869.88
2022-10-16T07:23:51.958Z,98868.41
2022-10-16T07:26:18.368Z,98869.78
2022-10-16T07:28:46.312Z,98874.84
2022-10-16T07:31:15.085Z,98883.47
2022-10-16T07:33:42.903Z,98886.91
2022-10-16T07:36:15.882Z,98898.28
2022-10-16T07:38:43.174Z,98897.38
2022-10-16T07:41:12.627Z,98900.44
2022-10-16T07:43:40.957Z,98900.69
2022-10-16T07:46:08.512Z,98908.97
2022-10-16T07:48:35.828Z,98918.59
2022-10-16T07:51:07.111Z,98922.19
2022-10-16T07:53:34.321Z,98922.59
2022-10-16T07:56:07.375Z,98920.16
2022-10-16T07:58:36.012Z,98919.72
2022-10-16T08:01:08.713Z,98916.16
2022-10-16T08:03:35.448Z,98918.41
2022-10-16T08:06:03.008Z,98920.91
2022-10-16T08:08:30.447Z,98927.22
2022-10-16T08:10:56.859Z,98920.47
2022-10-16T08:13:23.683Z,98930.53
2022-10-16T08:15:50.120Z,98922.09
2022-10-16T08:18:16.951Z,98926.13
2022-10-16T08:20:43.925Z,98929.94
2022-10-16T08:23:12.967Z,98926.88
2022-10-16T08:25:40.761Z,98939.50
2022-10-16T08:28:09.828Z,98943.19
2022-10-16T08:30:36.618Z,98936.59
2022-10-16T08:33:04.006Z,98935.56
2022-10-16T08:35:30.505Z,98939.38
2022-10-16T08:37:59.856Z,98937.72
2022-10-16T08:40:29.458Z,98943.38
2022-10-16T08:43:11.156Z,98936.47
2022-10-16T08:45:43.484Z,98929.00
2022-10-16T08:48:30.073Z,98932.22
2022-10-16T08:50:56.852Z,98931.94
2022-10-16T08:53:34.927Z,98931.84
2022-10-16T08:56:01.322Z,98935.16
2022-10-16T08:58:30.321Z,98935.81
2022-10-16T09:01:11.984Z,98942.78
2022-10-16T09:04:20.027Z,98949.72
2022-10-16T09:06:51.465Z,98943.03
2022-10-16T09:09:43.417Z,98942.34
2022-10-16T09:12:25.519Z,98964.94
2022-10-16T09:14:56.126Z,98958.28
2022-10-16T09:17:40.334Z,98968.38
2022-10-16T09:20:18.750Z,98967.72
2022-10-16T09:22:45.448Z,98961.31
2022-10-16T09:25:22.788Z,98959.63
2022-10-16T09:27:57.466Z,98953.22
2022-10-16T09:30:30.142Z,98948.03
2022-10-16T09:32:59.631Z,98953.75
2022-10-16T09:35:45.008Z,98953.16
2022-10-16T09:38:34.136Z,98950.06
2022-10-16T09:41:03.611Z,98963.22
2022-10-16T09:43:42.228Z,98946.88
2022-10-16T09:46:22.024Z,98938.84
2022-10-16T09:48:50.882Z,98944.84
2022-10-16T09:51:31.146Z,98934.72
2022-10-16T09:53:59.252Z,98936.56
2022-10-16T09:56:28.871Z,98925.41
2022-10-16T09:58:58.740Z,98926.06
2022-10-16T10:01:33.696Z,98917.97
2022-10-16T10:04:00.445Z,98925.81
2022-10-16T10:06:29.525Z,98925.03
2022-10-16T10:09:00.519Z,98926.66
2022-10-16T10:11:45.030Z,98917.72
2022-10-16T10:14:26.465Z,98923.84
2022-10-16T10:17:03.340Z,98915.56
2022-10-16T10:19:32.772Z,98915.41
2022-10-16T10:21:59.452Z,98913.81
2022-10-16T10:24:27.074Z,98909.53
2022-10-16T10:27:06.981Z,98902.56
2022-10-16T10:29:55.191Z,98908.84
2022-10-16T10:32:40.985Z,98904.28
2022-10-16T10:35:37.330Z,98916.84
2022-10-16T10:38:47.189Z,98910.56
2022-10-16T10:41:43.945Z,98907.44
2022-10-16T10:44:46.051Z,98904.75
2022-10-16T10:47:40.146Z,98906.66
2022-10-16T10:50:32.802Z,98911.16
2022-10-16T10:53:30.024Z,98905.28
2022-10-16T10:56:30.730Z,98914.53
2022-10-16T10:59:18.481Z,98916.09
2022-10-16T11:01:58.404Z,98912.13
2022-10-16T11:04:38.428Z,98912.44
2022-10-16T11:07:48.107Z,98908.06
2022-10-16T11:10:26.651Z,98900.41
2022-10-16T11:13:11.379Z,98899.34
2022-10-16T11:15:42.325Z,98901.81
2022-10-16T11:18:25.409Z,98903.97
2022-10-16T11:20:58.164Z,98895.25
2022-10-16T11:23:48.517Z,98897.72
2022-10-16T11:26:28.528Z,98893.50
2022-10-16T11:28:56.950Z,98886.53
2022-10-16T11:31:41.231Z,98884.78
2022-10-16T11:34:18.399Z,98885.63
2022-10-16T11:36:45.182Z,98871.94
2022-10-16T11:39:33.830Z,98885.38
2022-10-16T11:42:05.682Z,98884.59
2022-10-16T11:45:09.294Z,98882.25
2022-10-16T11:48:05.437Z,98885.50
2022-10-16T11:50:40.550Z,98893.75
2022-10-16T11:53:32.016Z,98884.88
2022-10-16T11:55:58.513Z,98872.16
2022-10-16T11:58:36.909Z,98880.47
2022-10-16T12:01:29.444Z,98874.69
2022-10-16T12:04:08.131Z,98877.56
2022-10-16T12:07:12.922Z,98872.81
2022-10-16T12:09:41.057Z,98872.63
2022-10-16T12:12:46.530Z,98870.16
2022-10-16T12:15:57.699Z,98865.00
2022-10-16T12:18:26.022Z,98864.34
2022-10-16T12:21:00.660Z,98870.44
2022-10-16T12:23:27.592Z,98855.16
2022-10-16T12:26:02.402Z,98856.81
2022-10-16T12:28:33.946Z,98851.69
2022-10-16T12:31:06.857Z,98859.06
2022-10-16T12:33:37.538Z,98870.13
2022-10-16T12:36:18.568Z,98862.84
2022-10-16T12:38:52.706Z,98863.72
2022-10-16T12:41:31.081Z,98871.50
2022-10-16T12:43:59.176Z,98869.19
2022-10-16T12:46:41.908Z,98874.69
2022-10-16T12:49:31.778Z,98874.75
2022-10-16T12:51:58.674Z,98880.78
2022-10-16T12:54:40.129Z,98879.53
2022-10-16T12:57:33.381Z,98882.19
2022-10-16T13:00:05.185Z,98890.63
2022-10-16T13:03:02.567Z,98887.88
2022-10-16T13:05:57.021Z,98877.19
2022-10-16T13:09:02.174Z,98874.81
2022-10-16T13:11:40.835Z,98876.84
2022-10-16T13:14:26.103Z,98868.94
2022-10-16T13:17:12.978Z,98889.22
2022-10-16T13:20:05.738Z,98892.59
2022-10-16T13:23:01.306Z,98889.50
2022-10-16T13:25:51.065Z,98892.41
2022-10-16T13:28:24.366Z,98890.63
2022-10-16T13:30:56.381Z,98890.41
2022-10-16T13:33:59.494Z,98879.22
2022-10-16T13:36:29.223Z,98889.69
2022-10-16T13:39:29.095Z,98896.31
2022-10-16T13:42:09.097Z,98885.72
2022-10-16T13:44:46.585Z,98891.38
2022-10-16T13:47:22.912Z,98895.97
2022-10-16T13:50:04.357Z,98895.34
2022-10-16T13:52:31.255Z,98889.41
2022-10-16T13:55:01.005Z,98890.28
2022-10-16T13:57:29.312Z,98879.75
2022-10-16T13:59:55.899Z,98890.81
2022-10-16T14:02:36.359Z,98883.13
2022-10-16T14:05:05.104Z,98876.88
2022-10-16T14:07:36.495Z,98880.19
2022-10-16T14:10:06.457Z,98873.78
2022-10-16T14:12:33.533Z,98871.44
2022-10-16T14:15:03.648Z,98873.41
2022-10-16T14:17:33.681Z,98871.78
2022-10-16T14:20:06.649Z,98876.72
2022-10-16T14:22:43.274Z,98873.97
2022-10-16T14:25:22.247Z,98873.97
2022-10-16T14:28:22.212Z,98878.34
2022-10-16T14:31:01.010Z,98879.47
2022-10-16T14:33:34.309Z,98875.66
2022-10-16T14:36:08.233Z,98877.25
2022-10-16T14:38:36.475Z,98873.91
2022-10-16T14:41:04.743Z,98880.41
2022-10-16T14:43:42.133Z,98883.72
2022-10-16T14:46:17.751Z,98883.72
2022-10-16T14:48:50.753Z,98883.22
2022-10-16T14:51:21.240Z,98878.38
2022-10-16T14:53:50.644Z,98881.66
2022-10-16T14:56:20.425Z,98878.41
2022-10-16T14:58:47.479Z,98879.19
2022-10-16T15:01:14.034Z,98877.88
2022-10-16T15:03:40.457Z,98879.19
2022-10-16T15:06:12.686Z,98885.72
2022-10-16T15:08:39.837Z,98885.47
2022-10-16T15:11:12.065Z,98887.94
2022-10-16T15:13:38.447Z,98883.28
2022-10-16T15:16:05.492Z,98881.66
2022-10-16T15:18:31.975Z,98882.75
2022-10-16T15:20:58.399Z,98884.91
2022-10-16T15:25:58.421Z,98889.81
2022-10-16T15:28:25.949Z,98881.34
2022-10-16T15:30:54.876Z,98887.06
2022-10-16T15:33:24.337Z,98894.13
2022-10-16T15:35:53.290Z,98890.84
2022-10-16T15:38:21.520Z,98897.34
2022-10-16T15:40:49.834Z,98887.84
2022-10-16T15:43:16.806Z,98888.38
2022-10-16T15:45:43.564Z,98886.22
2022-10-16T15:48:13.925Z,98885.84
2022-10-16T15:50:40.734Z,98897.81
2022-10-16T15:53:07.107Z,98897.50
2022-10-16T15:55:37.400Z,98898.25
2022-10-16T15:58:03.902Z,98905.03
2022-10-16T16:00:30.520Z,98906.91
2022-10-16T16:02:57.068Z,98900.06
2022-10-16T16:05:24.635Z,98904.31
2022-10-16T16:07:54.475Z,98916.66
2022-10-16T16:10:21.531Z,98917.38
2022-10-16T16:12:49.243Z,98915.31
2022-10-16T16:15:15.995Z,98914.88
2022-10-16T16:17:42.325Z,98914.72
2022-10-16T16:20:09.518Z,98922.94
2022-10-16T16:22:36.023Z,98926.00
2022-10-16T16:25:02.475Z,98926.44
2022-10-16T16:27:29.595Z,98934.22
2022-10-16T16:29:57.009Z,98934.88
2022-10-16T16:32:23.555Z,98943.19
2022-10-16T16:34:49.904Z,98949.13
2022-10-16T16:37:16.306Z,98952.28
2022-10-16T16:39:42.750Z,98964.28
2022-10-16T16:42:09.194Z,98971.69
2022-10-16T16:44:35.878Z,98979.88
2022-10-16T16:47:02.692Z,98981.94
2022-10-16T16:49:29.557Z,98979.06
2022-10-16T16:51:56.358Z,98990.31
2022-10-16T16:54:25.075Z,98987.00
2022-10-16T16:56:53.788Z,98991.66
2022-10-16T16:59:23.870Z,98988.78
2022-10-16T17:01:56.885Z,99002.81
2022-10-16T17:04:23.640Z,99007.88
2022-10-16T17:06:49.941Z,99002.13
2022-10-16T17:09:16.355Z,99002.84
2022-10-16T17:11:43.333Z,99009.81
2022-10-16T17:14:09.927Z,99005.94
2022-10-16T17:16:37.915Z,99011.00
2022-10-16T17:19:10.846Z,99011.50
2022-10-16T17:21:38.355Z,99010.34
2022-10-16T17:24:05.825Z,99010.78
2022-10-16T17:26:33.387Z,99020.47
2022-10-16T17:29:01.963Z,99020.34
2022-10-16T17:31:33.629Z,99027.53
2022-10-16T17:34:01.350Z,99029.78
2022-10-16T17:36:28.717Z,99038.28
2022-10-16T17:38:55.410Z,99031.13
2022-10-16T17:41:25.208Z,99039.69
2022-10-16T17:43:52.424Z,99037.94
2022-10-16T17:46:21.564Z,99049.22
2022-10-16T17:48:50.200Z,99049.44
2022-10-16T17:51:19.886Z,99039.34
2022-10-16T17:53:51.587Z,99051.69
2022-10-16T17:56:19.320Z,99060.50
2022-10-16T17:58:51.631Z,99059.31
2022-10-16T18:01:33.899Z,99066.47
2022-10-16T18:04:03.116Z,99068.22
2022-10-16T18:06:31.051Z,99077.50
2022-10-16T18:08:59.500Z,99089.25
2022-10-16T18:11:26.943Z,99091.63
2022-10-16T18:13:56.822Z,99090.94
2022-10-16T18:16:25.476Z,99103.72
2022-10-16T18:18:52.440Z,99105.31
2022-10-16T18:21:20.351Z,99106.91
2022-10-16T18:23:51.685Z,99112.88
2022-10-16T18:26:20.380Z,99108.03
2022-10-16T18:28:47.567Z,99115.75
2022-10-16T18:31:20.208Z,99120.38
2022-10-16T18:33:47.569Z,99121.09
2022-10-16T18:36:17.368Z,99118.47
2022-10-16T18:38:44.040Z,99125.34
2022-10-16T18:41:10.780Z,99130.81
2022-10-16T18:43:39.076Z,99120.94
2022-10-16T18:46:12.854Z,99123.72
2022-10-16T18:48:40.580Z,99127.25
2022-10-16T18:51:17.045Z,99140.59
2022-10-16T18:53:45.118Z,99136.31
2022-10-16T18:56:12.656Z,99132.44
2022-10-16T18:58:39.125Z,99132.50
2022-10-16T19:01:08.217Z,99129.88
2022-10-16T19:03:37.748Z,99140.47
2022-10-16T19:06:10.164Z,99138.66
2022-10-16T19:08:37.877Z,99145.09
2022-10-16T19:11:11.920Z,99144.69
2022-10-16T19:13:38.960Z,99143.75
2022-10-16T19:16:26.786Z,99149.19
2022-10-16T19:18:55.415Z,99153.28
2022-10-16T19:21:24.225Z,99155.44
2022-10-16T19:24:01.101Z,99154.22
2022-10-16T19:26:29.306Z,99156.75
2022-10-16T19:29:00.800Z,99168.38
2022-10-16T19:31:31.176Z,99175.03
2022-10-16T19:34:00.288Z,99171.34
2022-10-16T19:36:31.860Z,99167.19
2022-10-16T19:39:00.887Z,99169.50
2022-10-16T19:41:29.068Z,99168.72
2022-10-16T19:43:56.068Z,99168.34
2022-10-16T19:46:25.219Z,99168.34
2022-10-16T19:49:00.654Z,99171.69
2022-10-16T19:51:29.637Z,99170.47
2022-10-16T19:54:01.896Z,99171.91
2022-10-16T19:56:29.974Z,99186.22
2022-10-16T19:58:57.834Z,99176.13
2022-10-16T20:01:26.775Z,99180.72
2022-10-16T20:03:53.566Z,99182.16
2022-10-16T20:06:21.067Z,99191.47
2022-10-16T20:09:01.352Z,99184.88
2022-10-16T20:11:31.170Z,99187.97
2022-10-16T20:13:58.658Z,99195.47
2022-10-16T20:16:26.375Z,99188.84
2022-10-16T20:18:53.683Z,99193.38
2022-10-16T20:21:24.459Z,99199.41
2022-10-16T20:23:53.670Z,99204.97
2022-10-16T20:26:23.834Z,99200.03
2022-10-16T20:28:50.675Z,99207.88
2022-10-16T20:31:22.962Z,99208.09
2022-10-16T20:33:50.716Z,99213.69
2022-10-16T20:36:18.517Z,99216.59
2022-10-16T20:38:48.591Z,99221.75
2022-10-16T20:41:19.207Z,99230.03
2022-10-16T20:43:47.717Z,99239.94
2022-10-16T20:46:19.185Z,99237.06
2022-10-16T20:48:46.493Z,99245.53
2022-10-16T20:51:15.935Z,99242.44
2022-10-16T20:53:43.343Z,99251.97
2022-10-16T20:56:09.841Z,99252.56
2022-10-16T20:58:39.139Z,99253.19
2022-10-16T21:01:10.370Z,99257.31
2022-10-16T21:03:39.056Z,99260.81
2022-10-16T21:06:07.655Z,99260.63
2022-10-16T21:08:45.579Z,99267.25
2022-10-16T21:11:20.967Z,99265.19
2022-10-16T21:13:48.356Z,99271.16
2022-10-16T21:16:18.395Z,99266.19
2022-10-16T21:18:45.117Z,99262.44
2022-10-16T21:21:34.674Z,99276.50
2022-10-16T21:24:01.637Z,99278.94
2022-10-16T21:26:29.141Z,99278.75
2022-10-16T21:29:01.467Z,99278.94
2022-10-16T21:31:39.957Z,99284.72
2022-10-16T21:34:22.615Z,99283.66
2022-10-16T21:36:51.978Z,99287.81
2022-10-16T21:39:23.338Z,99292.97
2022-10-16T21:41:50.739Z,99302.44
2022-10-16T21:44:26.524Z,99297.50
2022-10-16T21:46:59.638Z,99298.13
2022-10-16T21:49:25.997Z,99299.50
2022-10-16T21:51:54.944Z,99302.81
2022-10-16T21:54:24.046Z,99296.22
2022-10-16T21:56:50.791Z,99295.97
2022-10-16T21:59:20.669Z,99288.31
2022-10-16T22:01:47.459Z,99289.16
2022-10-16T22:04:19.033Z,99291.22
2022-10-16T22:06:45.811Z,99297.59
2022-10-16T22:09:13.508Z,99286.66
2022-10-16T22:11:43.059Z,99292.22
2022-10-16T22:14:13.032Z,99290.97
2022-10-16T22:16:39.761Z,99295.25
2022-10-16T22:19:06.390Z,99289.25
2022-10-16T22:21:34.944Z,99295.88
2022-10-16T22:24:01.643Z,99294.41
2022-10-16T22:26:28.041Z,99297.69
2022-10-16T22:28:55.715Z,99289.22
2022-10-16T22:31:24.543Z,99296.00
2022-10-16T22:34:01.032Z,99292.91
2022-10-16T22:36:28.871Z,99289.56
2022-10-16T22:38:57.243Z,99296.38
2022-10-16T22:41:23.904Z,99293.63
2022-10-16T22:43:51.140Z,99292.38
2022-10-16T22:46:23.066Z,99285.75
2022-10-16T22:48:49.473Z,99279.97
2022-10-16T22:51:17.142Z,99290.44
2022-10-16T22:53:46.173Z,99290.66
2022-10-16T22:56:13.694Z,99295.38
2022-10-16T22:58:40.268Z,99294.53
2022-10-16T23:01:12.471Z,99296.97
2022-10-16T23:03:38.910Z,99304.19
2022-10-16T23:06:05.412Z,99301.84
2022-10-16T23:08:32.051Z,99292.56
2022-10-16T23:10:58.466Z,99298.09
2022-10-16T23:13:25.063Z,99293.13
2022-10-16T23:15:51.743Z,99302.19
2022-10-16T23:18:18.476Z,99308.00
2022-10-16T23:20:45.625Z,99304.44
2022-10-16T23:23:11.969Z,99307.13
2022-10-16T23:25:47.751Z,99304.19
2022-10-16T23:30:43.040Z,99314.84
2022-10-16T23:33:09.371Z,99313.19
2022-10-16T23:35:41.519Z,99311.72
2022-10-16T23:38:08.260Z,99316.81
2022-10-16T23:40:38.975Z,99316.66
2022-10-16T23:43:05.262Z,99330.84
2022-10-16T23:45:31.754Z,99324.22
2022-10-16T23:47:58.358Z,99328.13
2022-10-16T23:50:24.760Z,99332.00
2022-10-16T23:52:51.143Z,99336.72
2022-10-16T23:55:17.901Z,99789.56
2022-10-16T23:57:44.284Z,99778.22
